createdAt,value
2022-09-29T00:01:06.745Z,4.30
2022-09-29T00:03:33.827Z,3.70
2022-09-29T00:06:01.051Z,4.20
2022-09-29T00:08:31.890Z,5.70
2022-09-29T00:10:58.802Z,3.80
2022-09-29T00:13:25.867Z,4.07
2022-09-29T00:16:02.026Z,4.07
2022-09-29T00:18:31.177Z,6.53
2022-09-29T00:21:16.233Z,3.43
2022-09-29T00:23:43.308Z,3.47
2022-09-29T00:26:19.850Z,3.43
2022-09-29T00:28:53.769Z,3.87
2022-09-29T00:31:21.556Z,3.17
2022-09-29T00:33:48.580Z,3.90
2022-09-29T00:36:19.243Z,3.63
2022-09-29T00:38:47.351Z,3.73
2022-09-29T00:41:18.447Z,3.20
2022-09-29T00:43:58.666Z,3.90
2022-09-29T00:46:49.007Z,2.90
2022-09-29T00:49:25.070Z,2.80
2022-09-29T00:52:26.116Z,3.97
2022-09-29T00:55:12.410Z,2.83
2022-09-29T00:58:06.463Z,2.97
2022-09-29T01:00:33.905Z,5.63
2022-09-29T01:03:23.020Z,4.97
2022-09-29T01:05:55.731Z,2.57
2022-09-29T01:08:42.713Z,4.93
2022-09-29T01:11:11.677Z,2.97
2022-09-29T01:13:39.700Z,3.03
2022-09-29T01:16:06.814Z,3.33
2022-09-29T01:18:33.978Z,3.17
2022-09-29T01:21:19.330Z,3.70
2022-09-29T01:24:34.468Z,3.50
2022-09-29T01:27:27.489Z,3.73
2022-09-29T01:30:00.197Z,2.93
2022-09-29T01:33:01.674Z,3.37
2022-09-29T01:36:01.251Z,3.40
2022-09-29T01:39:07.186Z,5.40
2022-09-29T01:41:42.634Z,3.13
2022-09-29T01:44:45.184Z,3.93
2022-09-29T01:47:27.178Z,3.23
2022-09-29T01:50:08.750Z,3.33
2022-09-29T01:52:44.221Z,2.60
2022-09-29T01:55:17.651Z,3.30
2022-09-29T01:57:54.938Z,4.30
2022-09-29T02:00:24.145Z,2.73
2022-09-29T02:03:11.074Z,3.50
2022-09-29T02:05:54.353Z,3.23
2022-09-29T02:08:49.794Z,3.30
2022-09-29T02:11:17.969Z,3.33
2022-09-29T02:13:54.791Z,3.10
2022-09-29T02:16:29.544Z,2.50
2022-09-29T02:19:18.039Z,2.20
2022-09-29T02:21:45.214Z,2.23
2022-09-29T02:24:13.309Z,2.33
2022-09-29T02:26:41.679Z,2.10
2022-09-29T02:29:09.324Z,2.30
2022-09-29T02:31:38.573Z,2.53
2022-09-29T02:34:11.790Z,2.60
2022-09-29T02:37:43.327Z,3.17
2022-09-29T02:40:12.796Z,2.37
2022-09-29T02:43:15.951Z,2.40
2022-09-29T02:46:42.083Z,3.20
2022-09-29T02:49:40.935Z,2.70
2022-09-29T02:52:17.314Z,2.93
2022-09-29T02:55:22.849Z,2.60
2022-09-29T02:58:07.530Z,2.80
2022-09-29T03:00:34.668Z,2.97
2022-09-29T03:03:01.819Z,2.80
2022-09-29T03:05:28.890Z,2.63
2022-09-29T03:07:55.768Z,2.83
2022-09-29T03:10:24.900Z,2.60
2022-09-29T03:12:54.932Z,3.17
2022-09-29T03:15:22.171Z,2.50
2022-09-29T03:17:49.735Z,2.90
2022-09-29T03:20:16.772Z,2.83
2022-09-29T03:22:43.760Z,2.90
2022-09-29T03:25:12.956Z,3.37
2022-09-29T03:27:39.896Z,3.50
2022-09-29T03:30:08.086Z,3.50
2022-09-29T03:32:34.939Z,3.77
2022-09-29T03:35:01.824Z,4.10
2022-09-29T03:37:28.733Z,4.70
2022-09-29T03:39:56.038Z,7.47
2022-09-29T03:42:24.386Z,7.73
2022-09-29T03:44:51.420Z,7.70
2022-09-29T03:47:18.304Z,7.10
2022-09-29T03:49:45.254Z,6.10
2022-09-29T03:52:12.776Z,5.50
2022-09-29T03:54:39.748Z,5.03
2022-09-29T03:57:06.599Z,2.77
2022-09-29T03:59:33.545Z,2.70
2022-09-29T04:02:00.682Z,3.30
2022-09-29T04:04:27.597Z,2.10
2022-09-29T04:06:54.518Z,2.50
2022-09-29T04:09:21.410Z,2.73
2022-09-29T04:11:48.873Z,2.93
2022-09-29T04:14:15.812Z,2.90
2022-09-29T04:16:42.751Z,2.70
2022-09-29T04:19:09.841Z,2.40
2022-09-29T04:21:36.839Z,2.97
2022-09-29T04:24:04.172Z,2.47
2022-09-29T04:26:31.090Z,2.10
2022-09-29T04:28:57.992Z,3.17
2022-09-29T04:31:24.991Z,2.40
2022-09-29T04:33:52.314Z,3.00
2022-09-29T04:36:19.954Z,3.07
2022-09-29T04:38:46.851Z,2.80
2022-09-29T04:41:13.807Z,3.60
2022-09-29T04:43:40.650Z,3.73
2022-09-29T04:46:08.979Z,3.97
2022-09-29T04:48:36.687Z,4.93
2022-09-29T04:51:05.165Z,4.00
2022-09-29T04:53:32.228Z,6.70
2022-09-29T04:55:59.373Z,4.17
2022-09-29T04:58:26.319Z,4.27
2022-09-29T05:00:53.281Z,4.33
2022-09-29T05:03:20.160Z,4.33
2022-09-29T05:05:47.055Z,4.17
2022-09-29T05:08:13.947Z,7.20
2022-09-29T05:10:40.847Z,4.70
2022-09-29T05:13:07.754Z,4.10
2022-09-29T05:15:34.799Z,3.90
2022-09-29T05:18:03.142Z,3.50
2022-09-29T05:20:38.365Z,3.47
2022-09-29T05:23:10.046Z,3.90
2022-09-29T05:25:40.532Z,3.23
2022-09-29T05:28:08.539Z,3.67
2022-09-29T05:30:35.610Z,3.83
2022-09-29T05:33:02.552Z,3.83
2022-09-29T05:35:29.467Z,4.10
2022-09-29T05:37:56.435Z,4.50
2022-09-29T05:40:24.763Z,3.70
2022-09-29T05:42:52.514Z,4.17
2022-09-29T05:45:19.622Z,4.43
2022-09-29T05:47:46.595Z,5.00
2022-09-29T05:50:14.445Z,4.10
2022-09-29T05:52:41.847Z,4.17
2022-09-29T05:55:09.802Z,4.27
2022-09-29T05:57:37.148Z,3.80
2022-09-29T06:00:06.193Z,3.97
2022-09-29T06:02:34.119Z,4.63
2022-09-29T06:05:01.203Z,4.40
2022-09-29T06:07:28.092Z,4.63
2022-09-29T06:09:54.995Z,4.60
2022-09-29T06:12:22.162Z,6.03
2022-09-29T06:14:49.088Z,4.83
2022-09-29T06:17:16.216Z,5.17
2022-09-29T06:19:44.976Z,4.63
2022-09-29T06:22:11.970Z,5.20
2022-09-29T06:24:38.949Z,4.93
2022-09-29T06:27:05.840Z,3.60
2022-09-29T06:29:32.771Z,3.97
2022-09-29T06:31:59.641Z,4.20
2022-09-29T06:34:26.682Z,3.13
2022-09-29T06:37:12.098Z,3.17
2022-09-29T06:39:39.187Z,3.60
2022-09-29T06:42:06.110Z,4.40
2022-09-29T06:44:33.062Z,2.93
2022-09-29T06:47:00.242Z,3.60
2022-09-29T06:49:27.331Z,7.03
2022-09-29T06:51:54.443Z,5.33
2022-09-29T06:54:25.078Z,5.23
2022-09-29T06:56:53.833Z,4.13
2022-09-29T06:59:21.037Z,2.60
2022-09-29T07:01:50.573Z,2.87
2022-09-29T07:04:20.121Z,2.00
2022-09-29T07:06:47.839Z,1.90
2022-09-29T07:09:17.995Z,2.70
2022-09-29T07:11:48.211Z,3.73
2022-09-29T07:14:16.767Z,2.37
2022-09-29T07:16:44.182Z,2.37
2022-09-29T07:19:11.223Z,2.33
2022-09-29T07:21:38.267Z,3.00
2022-09-29T07:24:05.439Z,3.13
2022-09-29T07:26:32.597Z,2.20
2022-09-29T07:28:59.507Z,1.97
2022-09-29T07:31:26.519Z,2.20
2022-09-29T07:33:53.441Z,2.03
2022-09-29T07:36:21.504Z,1.87
2022-09-29T07:38:50.787Z,2.97
2022-09-29T07:41:20.713Z,1.60
2022-09-29T07:43:47.631Z,1.60
2022-09-29T07:46:14.721Z,1.87
2022-09-29T07:48:41.606Z,1.20
2022-09-29T07:51:16.010Z,1.50
2022-09-29T07:53:43.058Z,1.90
2022-09-29T07:56:18.673Z,2.53
2022-09-29T07:58:47.707Z,2.53
2022-09-29T08:01:16.221Z,2.50
2022-09-29T08:03:52.615Z,3.27
2022-09-29T08:06:19.916Z,2.53
2022-09-29T08:08:59.586Z,1.73
2022-09-29T08:11:32.400Z,2.53
2022-09-29T08:14:00.997Z,1.73
2022-09-29T08:16:28.017Z,2.00
2022-09-29T08:18:55.204Z,1.73
2022-09-29T08:21:22.496Z,2.03
2022-09-29T08:23:49.426Z,2.87
2022-09-29T08:26:28.722Z,1.70
2022-09-29T08:29:08.482Z,1.50
2022-09-29T08:31:37.868Z,1.93
2022-09-29T08:34:05.090Z,1.43
2022-09-29T08:36:32.077Z,1.50
2022-09-29T08:38:59.312Z,1.97
2022-09-29T08:41:38.058Z,1.73
2022-09-29T08:44:32.996Z,1.87
2022-09-29T08:47:10.729Z,1.70
2022-09-29T08:49:50.968Z,1.50
2022-09-29T08:52:27.178Z,2.33
2022-09-29T08:55:16.515Z,7.10
2022-09-29T08:57:48.201Z,9.50
2022-09-29T09:00:18.280Z,5.23
2022-09-29T09:03:12.615Z,2.63
2022-09-29T09:05:51.749Z,2.00
2022-09-29T09:08:40.098Z,1.40
2022-09-29T09:11:30.846Z,1.47
2022-09-29T09:14:13.906Z,1.97
2022-09-29T09:17:10.418Z,2.13
2022-09-29T09:20:04.049Z,1.50
2022-09-29T09:23:00.980Z,1.80
2022-09-29T09:25:46.544Z,1.90
2022-09-29T09:28:41.665Z,1.77
2022-09-29T09:31:11.507Z,2.70
2022-09-29T09:33:59.177Z,1.77
2022-09-29T09:36:39.220Z,1.90
2022-09-29T09:39:18.303Z,2.30
2022-09-29T09:41:49.510Z,3.10
2022-09-29T09:44:35.688Z,2.10
2022-09-29T09:47:22.746Z,3.30
2022-09-29T09:49:58.561Z,1.97
2022-09-29T09:52:45.543Z,1.10
2022-09-29T09:55:25.061Z,1.50
2022-09-29T09:57:58.025Z,2.03
2022-09-29T10:00:34.983Z,1.40
2022-09-29T10:03:07.907Z,1.80
2022-09-29T10:05:41.659Z,1.13
2022-09-29T10:08:39.543Z,1.47
2022-09-29T10:11:28.094Z,1.30
2022-09-29T10:14:13.514Z,1.70
2022-09-29T10:17:02.289Z,1.10
2022-09-29T10:19:59.050Z,1.77
2022-09-29T10:22:29.239Z,1.60
2022-09-29T10:25:16.117Z,1.57
2022-09-29T10:27:48.343Z,1.47
2022-09-29T10:30:34.781Z,1.73
2022-09-29T10:33:09.082Z,1.80
2022-09-29T10:35:41.782Z,1.67
2022-09-29T10:38:17.450Z,1.87
2022-09-29T10:40:59.358Z,2.10
2022-09-29T10:43:39.592Z,2.30
2022-09-29T10:46:37.415Z,2.00
2022-09-29T10:49:19.004Z,6.70
2022-09-29T10:52:17.700Z,1.83
2022-09-29T10:54:59.345Z,2.50
2022-09-29T10:57:32.402Z,2.43
2022-09-29T11:00:00.301Z,2.30
2022-09-29T11:02:32.958Z,2.10
2022-09-29T11:05:05.360Z,2.63
2022-09-29T11:07:34.216Z,2.90
2022-09-29T11:10:02.223Z,15.70
2022-09-29T11:12:35.121Z,10.73
2022-09-29T11:15:02.691Z,5.97
2022-09-29T11:17:37.352Z,3.70
2022-09-29T11:20:12.283Z,2.60
2022-09-29T11:22:42.278Z,2.80
2022-09-29T11:25:56.987Z,2.67
2022-09-29T11:28:29.697Z,3.43
2022-09-29T11:31:47.133Z,3.70
2022-09-29T11:35:06.331Z,4.00
2022-09-29T11:37:56.148Z,2.70
2022-09-29T11:41:00.061Z,2.93
2022-09-29T11:43:56.058Z,2.40
2022-09-29T11:46:45.362Z,2.43
2022-09-29T11:50:09.457Z,2.90
2022-09-29T11:53:05.267Z,2.60
2022-09-29T11:56:19.384Z,3.20
2022-09-29T11:59:05.570Z,2.77
2022-09-29T12:02:05.216Z,2.80
2022-09-29T12:04:50.323Z,3.20
2022-09-29T12:07:24.470Z,2.77
2022-09-29T12:10:31.027Z,2.90
2022-09-29T12:13:25.636Z,2.97
2022-09-29T12:16:01.568Z,2.70
2022-09-29T12:18:57.136Z,2.90
2022-09-29T12:21:42.912Z,2.63
2022-09-29T12:24:37.880Z,2.73
2022-09-29T12:27:12.726Z,3.13
2022-09-29T12:29:45.134Z,3.50
2022-09-29T12:32:28.396Z,3.83
2022-09-29T12:35:11.947Z,4.20
2022-09-29T12:38:06.566Z,4.07
2022-09-29T12:40:39.464Z,3.80
2022-09-29T12:43:30.541Z,4.00
2022-09-29T12:46:02.521Z,5.40
2022-09-29T12:49:03.457Z,3.93
2022-09-29T12:51:42.915Z,4.00
2022-09-29T12:54:35.243Z,3.60
2022-09-29T12:57:05.579Z,4.17
2022-09-29T12:59:43.664Z,4.20
2022-09-29T13:02:23.379Z,3.47
2022-09-29T13:05:39.008Z,3.63
2022-09-29T13:08:44.348Z,3.63
2022-09-29T13:11:55.393Z,3.43
2022-09-29T13:14:25.591Z,3.30
2022-09-29T13:20:20.507Z,3.27
2022-09-29T13:23:25.801Z,4.53
2022-09-29T13:26:16.706Z,5.10
2022-09-29T13:28:49.566Z,5.23
2022-09-29T13:31:32.608Z,6.20
2022-09-29T13:34:03.022Z,4.73
2022-09-29T13:36:40.333Z,4.23
2022-09-29T13:39:20.955Z,4.97
2022-09-29T13:41:47.971Z,3.63
2022-09-29T13:44:17.886Z,4.13
2022-09-29T13:46:45.151Z,4.40
2022-09-29T13:49:12.061Z,3.90
2022-09-29T13:52:23.353Z,4.73
2022-09-29T13:54:50.369Z,3.80
2022-09-29T13:57:23.782Z,4.90
2022-09-29T13:59:55.969Z,4.87
2022-09-29T14:02:52.142Z,4.20
2022-09-29T14:05:25.260Z,4.97
2022-09-29T14:08:19.806Z,4.27
2022-09-29T14:11:37.813Z,4.37
2022-09-29T14:14:31.609Z,4.30
2022-09-29T14:17:05.490Z,5.50
2022-09-29T14:19:59.856Z,4.87
2022-09-29T14:22:38.720Z,4.70
2022-09-29T14:25:08.754Z,4.60
2022-09-29T14:27:58.343Z,4.90
2022-09-29T14:30:52.307Z,9.47
2022-09-29T14:33:35.952Z,4.20
2022-09-29T14:36:14.843Z,4.50
2022-09-29T14:39:02.622Z,4.23
2022-09-29T14:41:43.203Z,4.13
2022-09-29T14:44:51.377Z,4.63
2022-09-29T14:47:42.552Z,4.23
2022-09-29T14:50:56.847Z,5.43
2022-09-29T14:53:35.767Z,4.17
2022-09-29T14:56:47.389Z,4.97
2022-09-29T15:00:04.148Z,3.73
2022-09-29T15:02:34.209Z,5.27
2022-09-29T15:05:12.412Z,5.33
2022-09-29T15:07:43.140Z,4.90
2022-09-29T15:10:32.979Z,5.70
2022-09-29T15:13:30.276Z,4.73
2022-09-29T15:16:24.999Z,4.87
2022-09-29T15:19:15.973Z,6.33
2022-09-29T15:21:57.182Z,4.30
2022-09-29T15:25:08.206Z,4.00
2022-09-29T15:27:38.861Z,4.73
2022-09-29T15:30:14.418Z,4.93
2022-09-29T15:32:41.402Z,4.40
2022-09-29T15:35:13.905Z,4.47
2022-09-29T15:37:50.675Z,5.33
2022-09-29T15:40:21.397Z,4.53
2022-09-29T15:42:48.601Z,4.13
2022-09-29T15:45:24.286Z,3.83
2022-09-29T15:48:05.844Z,4.33
2022-09-29T15:50:42.295Z,4.40
2022-09-29T15:53:11.341Z,3.33
2022-09-29T15:55:38.803Z,3.10
2022-09-29T15:58:27.483Z,3.33
2022-09-29T16:01:06.801Z,2.90
2022-09-29T16:03:41.135Z,5.00
2022-09-29T16:06:29.201Z,3.60
2022-09-29T16:09:02.089Z,3.70
2022-09-29T16:11:36.512Z,3.60
2022-09-29T16:14:12.030Z,3.90
2022-09-29T16:16:49.414Z,3.17
2022-09-29T16:19:30.702Z,3.40
2022-09-29T16:22:03.352Z,4.40
2022-09-29T16:24:37.368Z,4.03
2022-09-29T16:27:05.115Z,4.50
2022-09-29T16:29:35.811Z,4.47
2022-09-29T16:32:32.478Z,4.57
2022-09-29T16:35:41.089Z,4.90
2022-09-29T16:38:23.662Z,6.00
2022-09-29T16:40:53.084Z,8.77
2022-09-29T16:43:33.421Z,6.60
2022-09-29T16:46:03.138Z,6.93
2022-09-29T16:48:32.345Z,8.33
2022-09-29T16:51:05.735Z,7.50
2022-09-29T16:53:35.564Z,9.40
2022-09-29T16:59:13.576Z,7.83
2022-09-29T17:01:43.625Z,9.70
2022-09-29T17:04:11.833Z,10.40
2022-09-29T17:06:45.624Z,10.07
2022-09-29T17:09:20.357Z,10.40
2022-09-29T17:11:49.467Z,11.30
2022-09-29T17:14:18.632Z,11.30
2022-09-29T17:16:45.939Z,12.20
2022-09-29T17:19:12.922Z,12.20
2022-09-29T17:21:39.903Z,14.97
2022-09-29T17:24:06.830Z,14.20
2022-09-29T17:27:03.942Z,13.60
2022-09-29T17:29:31.780Z,14.57
2022-09-29T17:31:59.033Z,15.87
2022-09-29T17:34:28.980Z,15.90
2022-09-29T17:37:01.738Z,18.73
2022-09-29T17:39:29.215Z,16.13
2022-09-29T17:41:56.168Z,16.37
2022-09-29T17:44:23.081Z,16.10
2022-09-29T17:46:54.511Z,18.13
2022-09-29T17:49:25.206Z,19.67
2022-09-29T17:51:52.242Z,19.90
2022-09-29T17:54:19.204Z,20.47
2022-09-29T17:56:46.214Z,20.20
2022-09-29T17:59:14.257Z,19.37
2022-09-29T18:01:41.237Z,16.53
2022-09-29T18:04:08.857Z,15.83
2022-09-29T18:06:37.918Z,14.77
2022-09-29T18:09:17.683Z,13.10
2022-09-29T18:11:45.486Z,13.80
2022-09-29T18:14:12.343Z,12.20
2022-09-29T18:16:39.235Z,12.27
2022-09-29T18:19:16.998Z,13.10
2022-09-29T18:21:44.109Z,12.90
2022-09-29T18:24:11.164Z,13.63
2022-09-29T18:26:38.680Z,12.27
2022-09-29T18:29:18.963Z,11.93
2022-09-29T18:31:46.143Z,11.80
2022-09-29T18:34:16.924Z,11.90
2022-09-29T18:36:46.990Z,13.30
2022-09-29T18:39:14.284Z,12.90
2022-09-29T18:41:41.312Z,14.33
2022-09-29T18:44:17.876Z,13.20
2022-09-29T18:46:45.447Z,13.37
2022-09-29T18:49:14.543Z,12.50
2022-09-29T18:51:41.836Z,12.13
2022-09-29T18:54:08.917Z,14.83
2022-09-29T18:56:35.949Z,13.17
2022-09-29T18:59:05.914Z,13.03
2022-09-29T19:01:32.997Z,11.70
2022-09-29T19:04:00.084Z,13.23
2022-09-29T19:06:27.112Z,13.07
2022-09-29T19:08:54.887Z,13.73
2022-09-29T19:11:25.660Z,14.00
2022-09-29T19:13:55.305Z,15.03
2022-09-29T19:16:24.149Z,13.10
2022-09-29T19:18:51.139Z,13.90
2022-09-29T19:21:18.056Z,15.20
2022-09-29T19:23:48.211Z,12.70
2022-09-29T19:26:18.778Z,13.97
2022-09-29T19:28:47.619Z,14.50
2022-09-29T19:31:19.345Z,15.47
2022-09-29T19:33:47.440Z,13.60
2022-09-29T19:36:19.300Z,12.50
2022-09-29T19:38:46.807Z,12.67
2022-09-29T19:41:19.051Z,13.60
2022-09-29T19:43:46.568Z,12.27
2022-09-29T19:46:15.265Z,11.63
2022-09-29T19:48:43.399Z,11.70
2022-09-29T19:51:51.479Z,12.30
2022-09-29T19:54:21.765Z,13.00
2022-09-29T19:56:55.948Z,12.77
2022-09-29T19:59:27.149Z,14.07
2022-09-29T20:01:54.269Z,12.93
2022-09-29T20:04:29.395Z,12.40
2022-09-29T20:06:57.394Z,11.80
2022-09-29T20:09:25.103Z,12.53
2022-09-29T20:11:52.611Z,15.70
2022-09-29T20:14:25.751Z,13.07
2022-09-29T20:16:56.983Z,12.80
2022-09-29T20:19:24.710Z,14.37
2022-09-29T20:21:54.266Z,14.80
2022-09-29T20:24:25.414Z,14.47
2022-09-29T20:26:55.474Z,14.73
2022-09-29T20:29:22.466Z,15.03
2022-09-29T20:31:49.889Z,15.10
2022-09-29T20:34:18.568Z,15.93
2022-09-29T20:36:48.677Z,15.00
2022-09-29T20:39:21.762Z,14.33
2022-09-29T20:41:49.958Z,13.07
2022-09-29T20:44:20.108Z,15.07
2022-09-29T20:46:47.326Z,14.97
2022-09-29T20:49:14.364Z,15.40
2022-09-29T20:51:41.290Z,15.37
2022-09-29T20:54:12.633Z,12.17
2022-09-29T20:56:41.588Z,16.20
2022-09-29T20:59:15.096Z,15.40
2022-09-29T21:01:44.390Z,15.40
2022-09-29T21:04:15.927Z,16.67
2022-09-29T21:06:46.515Z,11.53
2022-09-29T21:09:20.234Z,14.07
2022-09-29T21:11:47.324Z,13.63
2022-09-29T21:14:24.348Z,13.87
2022-09-29T21:16:53.135Z,13.00
2022-09-29T21:19:26.558Z,14.93
2022-09-29T21:21:55.514Z,13.60
2022-09-29T21:24:23.143Z,14.80
2022-09-29T21:26:50.115Z,13.47
2022-09-29T21:29:19.223Z,15.60
2022-09-29T21:31:46.570Z,15.73
2022-09-29T21:34:15.480Z,15.87
2022-09-29T21:36:42.513Z,14.03
2022-09-29T21:39:10.208Z,12.73
2022-09-29T21:41:40.945Z,13.33
2022-09-29T21:44:15.674Z,16.23
2022-09-29T21:46:43.763Z,13.20
2022-09-29T21:49:12.616Z,12.07
2022-09-29T21:51:46.237Z,14.83
2022-09-29T21:54:20.032Z,15.23
2022-09-29T21:56:48.167Z,15.07
2022-09-29T21:59:18.718Z,11.30
2022-09-29T22:01:46.660Z,11.53
2022-09-29T22:04:14.931Z,14.30
2022-09-29T22:06:44.867Z,14.57
2022-09-29T22:09:20.542Z,13.03
2022-09-29T22:11:49.874Z,14.43
2022-09-29T22:14:17.951Z,15.03
2022-09-29T22:16:45.631Z,11.87
2022-09-29T22:19:29.217Z,11.90
2022-09-29T22:21:56.251Z,12.80
2022-09-29T22:24:24.060Z,14.03
2022-09-29T22:26:51.097Z,11.57
2022-09-29T22:29:18.234Z,13.30
2022-09-29T22:31:45.848Z,13.50
2022-09-29T22:34:12.778Z,14.73
2022-09-29T22:36:40.067Z,15.50
2022-09-29T22:39:07.598Z,13.77
2022-09-29T22:41:36.766Z,16.20
2022-09-29T22:44:04.636Z,13.90
2022-09-29T22:46:33.063Z,14.03
2022-09-29T22:49:04.281Z,12.67
2022-09-29T22:51:31.260Z,14.97
2022-09-29T22:53:58.113Z,13.83
2022-09-29T22:56:28.635Z,13.27
2022-09-29T22:59:01.330Z,13.90
2022-09-29T23:01:28.843Z,14.20
2022-09-29T23:03:56.119Z,13.87
2022-09-29T23:06:23.161Z,12.77
2022-09-29T23:08:50.208Z,15.90
2022-09-29T23:11:20.829Z,14.10
2022-09-29T23:13:48.833Z,13.70
2022-09-29T23:16:17.110Z,12.70
2022-09-29T23:18:45.960Z,13.00
2022-09-29T23:21:19.529Z,12.03
2022-09-29T23:23:57.930Z,13.03
2022-09-29T23:26:25.959Z,10.80
2022-09-29T23:28:53.242Z,13.13
2022-09-29T23:31:20.259Z,13.87
2022-09-29T23:33:58.407Z,13.00
2022-09-29T23:36:31.268Z,12.07
2022-09-29T23:39:10.627Z,12.90
2022-09-29T23:41:47.050Z,12.37
2022-09-29T23:44:17.997Z,15.30
2022-09-29T23:46:45.216Z,16.47
2022-09-29T23:49:16.258Z,17.40
2022-09-29T23:51:49.979Z,19.77
2022-09-29T23:54:20.106Z,17.63
2022-09-29T23:56:49.906Z,20.47
2022-09-29T23:59:17.702Z,20.10
